Time;durP1;ratioP1;P1;durP2;ratioP2;P2;SDS_P1;SDS_P2;PMS_P1;PMS_P2;Temp;Humidity;BMP_temperature;BMP_pressure;BME280_temperature;BME280_humidity;BME280_pressure;Samples;Min_cycle;Max_cycle;Signal;HPM_P1;HPM_P2
2023/03/20 00:02:20;;;;;;;31.40;15.13;;;10.70;99.90;;;;;;5076617;28;25057;-78
2023/03/20 00:04:48;;;;;;;31.08;14.93;;;10.70;99.90;;;;;;5076677;28;25074;-78
2023/03/20 00:07:15;;;;;;;28.00;15.50;;;10.70;99.90;;;;;;5076681;28;25063;-78
2023/03/20 00:09:42;;;;;;;28.23;14.60;;;10.60;99.90;;;;;;5076933;28;25052;-78
2023/03/20 00:12:25;;;;;;;29.02;15.35;;;10.60;99.90;;;;;;5075597;28;25111;-78
2023/03/20 00:14:52;;;;;;;29.50;15.73;;;10.60;99.90;;;;;;5076304;28;25110;-78
2023/03/20 00:17:21;;;;;;;31.60;16.73;;;10.60;99.90;;;;;;5076237;28;25090;-78
2023/03/20 00:19:48;;;;;;;27.17;15.15;;;10.60;99.90;;;;;;5076233;28;25059;-78
2023/03/20 00:22:15;;;;;;;31.13;15.85;;;10.60;99.90;;;;;;5076369;28;25059;-78
2023/03/20 00:24:42;;;;;;;30.90;14.88;;;10.60;99.90;;;;;;5058393;28;25062;-78
2023/03/20 00:27:15;;;;;;;32.55;15.70;;;10.50;99.90;;;;;;5076191;28;25129;-78
2023/03/20 00:29:43;;;;;;;35.83;16.02;;;10.40;99.90;;;;;;5076474;28;25127;-78
2023/03/20 00:32:14;;;;;;;32.97;15.05;;;10.30;99.90;;;;;;5076261;28;25053;-78
2023/03/20 00:34:42;;;;;;;35.88;16.58;;;10.20;99.90;;;;;;5058332;28;25096;-78
2023/03/20 00:37:13;;;;;;;33.47;15.88;;;10.10;99.90;;;;;;5076317;28;25079;-78
2023/03/20 00:39:41;;;;;;;34.60;16.33;;;10.00;99.90;;;;;;5058294;28;25118;-78
2023/03/20 00:42:20;;;;;;;36.50;16.70;;;9.90;99.90;;;;;;5058401;28;25063;-78
2023/03/20 00:44:54;;;;;;;36.75;17.17;;;9.80;99.90;;;;;;5075946;28;25063;-78
2023/03/20 00:47:23;;;;;;;39.28;16.75;;;9.70;99.90;;;;;;5075987;28;25059;-78
2023/03/20 00:49:53;;;;;;;29.10;13.20;;;9.70;99.90;;;;;;5075899;28;25098;-78
2023/03/20 00:52:21;;;;;;;32.35;13.90;;;9.60;99.90;;;;;;5076354;28;25105;-78
2023/03/20 00:54:48;;;;;;;39.83;15.63;;;9.50;99.90;;;;;;5058097;28;25074;-78
2023/03/20 00:57:38;;;;;;;34.42;13.23;;;9.50;99.90;;;;;;5076108;28;25047;-78
2023/03/20 01:00:27;;;;;;;29.45;14.05;;;9.50;99.90;;;;;;5075849;28;25074;-78
2023/03/20 01:02:56;;;;;;;37.08;14.48;;;9.50;99.90;;;;;;5076110;28;25080;-78
2023/03/20 01:05:26;;;;;;;34.95;12.30;;;9.50;99.90;;;;;;5076089;28;25063;-78
2023/03/20 01:07:54;;;;;;;33.08;14.32;;;9.50;99.90;;;;;;5075789;28;25071;-78
2023/03/20 01:10:32;;;;;;;31.20;12.68;;;9.50;99.90;;;;;;5076223;28;25104;-78
2023/03/20 01:13:01;;;;;;;30.95;13.65;;;9.40;99.90;;;;;;5075683;28;25082;-78
2023/03/20 01:15:33;;;;;;;32.80;12.60;;;9.40;99.90;;;;;;5076020;28;25134;-78
2023/03/20 01:18:00;;;;;;;31.20;12.73;;;9.40;99.90;;;;;;5075623;28;25173;-78
2023/03/20 01:20:29;;;;;;;34.75;15.10;;;9.40;99.90;;;;;;5076113;28;25059;-78
2023/03/20 01:22:57;;;;;;;29.80;13.60;;;9.30;99.90;;;;;;5077321;28;25077;-78
2023/03/20 01:25:25;;;;;;;35.95;14.60;;;9.30;99.90;;;;;;5079292;28;25113;-78
2023/03/20 01:27:54;;;;;;;36.20;13.95;;;9.20;99.90;;;;;;5061486;28;25060;-78
2023/03/20 01:30:26;;;;;;;34.05;14.88;;;9.20;99.90;;;;;;5079330;28;25135;-78
2023/03/20 01:32:54;;;;;;;33.35;14.00;;;9.20;99.90;;;;;;5079113;28;25105;-78
2023/03/20 01:35:24;;;;;;;34.53;13.20;;;9.10;99.90;;;;;;5079365;28;25091;-78
2023/03/20 01:37:51;;;;;;;35.78;13.43;;;9.10;99.90;;;;;;5078977;28;25105;-78
2023/03/20 01:40:34;;;;;;;35.63;14.85;;;9.00;99.90;;;;;;5079430;28;25056;-78
2023/03/20 01:43:02;;;;;;;42.95;13.98;;;9.00;99.90;;;;;;5061140;28;25061;-78
2023/03/20 01:45:34;;;;;;;35.20;14.25;;;9.00;99.90;;;;;;5079457;28;25066;-78
2023/03/20 01:48:23;;;;;;;35.50;13.88;;;8.90;99.90;;;;;;5078829;28;25101;-78
2023/03/20 01:50:50;;;;;;;41.53;15.05;;;8.90;99.90;;;;;;5078891;28;25062;-78
2023/03/20 01:53:25;;;;;;;40.58;16.23;;;8.80;99.90;;;;;;5079039;28;25082;-78
2023/03/20 01:55:56;;;;;;;34.88;14.00;;;8.70;99.90;;;;;;5079297;28;25075;-78
2023/03/20 01:58:37;;;;;;;32.80;14.13;;;8.70;99.90;;;;;;5078903;28;25073;-78
2023/03/20 02:01:09;;;;;;;35.85;14.20;;;8.60;99.90;;;;;;5079120;28;25088;-78
2023/03/20 02:03:37;;;;;;;38.03;14.48;;;8.50;99.90;;;;;;5078839;28;25112;-78
2023/03/20 02:06:07;;;;;;;33.85;13.73;;;8.30;99.90;;;;;;5079047;28;25072;-78
2023/03/20 02:08:43;;;;;;;35.55;13.95;;;8.30;99.90;;;;;;5078436;28;25095;-78
2023/03/20 02:11:11;;;;;;;37.90;14.45;;;8.20;99.90;;;;;;5078706;28;25063;-78
2023/03/20 02:13:38;;;;;;;35.95;14.35;;;8.10;99.90;;;;;;5078644;28;25124;-78
2023/03/20 02:16:12;;;;;;;38.15;14.52;;;8.00;99.90;;;;;;5078571;28;25109;-78
2023/03/20 02:18:41;;;;;;;33.58;14.10;;;7.90;99.90;;;;;;5078244;28;25098;-78
2023/03/20 02:21:44;;;;;;;35.85;14.32;;;7.80;99.90;;;;;;5078540;28;25076;-78
2023/03/20 02:24:30;;;;;;;35.90;14.07;;;7.70;99.90;;;;;;5077157;28;25119;-78
2023/03/20 02:27:19;;;;;;;38.03;14.53;;;7.60;99.90;;;;;;5078577;28;25149;-78
2023/03/20 02:30:13;;;;;;;42.60;16.48;;;7.60;99.90;;;;;;5078325;28;25056;-78
2023/03/20 02:33:12;;;;;;;54.28;18.95;;;7.60;99.90;;;;;;5078265;28;25071;-78
2023/03/20 02:35:52;;;;;;;50.05;17.90;;;7.60;99.90;;;;;;5059679;28;25126;-78
2023/03/20 02:38:26;;;;;;;52.03;19.42;;;7.60;99.90;;;;;;5078092;28;25072;-78
2023/03/20 02:41:10;;;;;;;50.40;17.13;;;7.70;99.90;;;;;;5078182;28;25094;-78
2023/03/20 02:43:58;;;;;;;42.38;16.88;;;7.80;99.90;;;;;;5077737;28;25054;-78
2023/03/20 02:46:44;;;;;;;49.58;18.98;;;7.90;99.90;;;;;;5077834;28;25088;-78
2023/03/20 02:49:17;;;;;;;47.17;17.10;;;7.90;99.90;;;;;;5077953;28;25072;-78
2023/03/20 02:51:52;;;;;;;47.45;19.08;;;8.00;99.90;;;;;;5077922;28;25066;-78
2023/03/20 02:54:41;;;;;;;50.65;18.48;;;8.10;99.90;;;;;;5077861;28;25095;-78
2023/03/20 02:57:49;;;;;;;40.78;17.45;;;8.10;99.90;;;;;;5059844;28;25127;-78
2023/03/20 03:00:21;;;;;;;;;;;8.20;99.90;;;;;;5023988;28;25070;-78
2023/03/20 03:03:10;;;;;;;43.03;16.15;;;8.20;99.90;;;;;;5077688;28;24113;-78
2023/03/20 03:06:07;;;;;;;43.03;17.35;;;8.20;99.90;;;;;;5077482;28;25052;-78
2023/03/20 03:08:42;;;;;;;43.05;17.60;;;8.30;99.90;;;;;;5077278;28;25065;-78
2023/03/20 03:11:10;;;;;;;38.60;16.80;;;8.30;99.90;;;;;;5077238;28;25054;-78
2023/03/20 03:13:53;;;;;;;41.83;16.63;;;8.40;99.90;;;;;;5077059;28;25063;-78
2023/03/20 03:16:30;;;;;;;37.22;16.48;;;8.40;99.90;;;;;;5077349;28;25092;-78
2023/03/20 03:19:13;;;;;;;43.47;17.80;;;8.40;99.90;;;;;;5076977;28;25058;-78
2023/03/20 03:21:40;;;;;;;42.20;16.15;;;8.50;99.90;;;;;;5077274;28;25091;-78
2023/03/20 03:24:36;;;;;;;42.13;17.42;;;8.50;99.90;;;;;;5076954;28;25091;-78
2023/03/20 03:27:13;;;;;;;44.10;17.65;;;8.50;99.90;;;;;;5077177;28;25089;-78
2023/03/20 03:29:41;;;;;;;44.90;17.13;;;8.60;99.90;;;;;;5077414;28;25019;-78
2023/03/20 03:32:23;;;;;;;46.50;19.20;;;8.60;99.90;;;;;;5076801;28;25144;-78
2023/03/20 03:34:52;;;;;;;43.67;16.80;;;8.60;99.90;;;;;;5059232;28;25075;-78
2023/03/20 03:37:39;;;;;;;39.15;16.40;;;8.60;99.90;;;;;;5076944;28;25057;-78
2023/03/20 03:40:17;;;;;;;45.97;17.50;;;8.70;99.90;;;;;;5059125;28;25067;-78
2023/03/20 03:43:06;;;;;;;41.08;16.73;;;8.70;99.90;;;;;;5077231;28;25074;-78
2023/03/20 03:45:49;;;;;;;44.10;18.35;;;8.70;99.90;;;;;;5077122;28;25063;-78
2023/03/20 03:48:27;;;;;;;44.60;16.55;;;8.70;99.90;;;;;;5076613;28;25059;-78
2023/03/20 03:51:06;;;;;;;45.42;16.58;;;8.70;99.90;;;;;;5076599;28;25058;-78
2023/03/20 03:53:41;;;;;;;50.05;17.60;;;8.70;99.90;;;;;;5076527;28;25152;-78
2023/03/20 03:56:11;;;;;;;44.80;18.10;;;8.70;99.90;;;;;;5076561;28;25123;-78
2023/03/20 03:58:47;;;;;;;46.58;16.13;;;8.70;99.90;;;;;;5076683;28;25069;-78
2023/03/20 04:01:17;;;;;;;48.55;17.40;;;8.70;99.90;;;;;;5058920;28;25085;-78
2023/03/20 04:03:59;;;;;;;46.30;16.23;;;8.70;99.90;;;;;;5076448;28;25159;-78
2023/03/20 04:06:27;;;;;;;47.08;17.20;;;8.70;99.90;;;;;;5076685;28;25068;-78
2023/03/20 04:08:55;;;;;;;44.75;16.67;;;8.60;99.90;;;;;;5076382;28;25087;-78
2023/03/20 04:11:24;;;;;;;45.08;15.90;;;8.70;99.90;;;;;;5058700;28;25071;-78
2023/03/20 04:13:52;;;;;;;41.08;15.85;;;8.70;99.90;;;;;;5076261;28;25069;-78
2023/03/20 04:16:22;;;;;;;48.50;18.98;;;8.70;99.90;;;;;;5076369;28;25138;-78
2023/03/20 04:18:50;;;;;;;48.28;16.40;;;8.70;99.90;;;;;;5076465;28;25124;-78
2023/03/20 04:21:18;;;;;;;43.75;16.92;;;8.70;99.90;;;;;;5076671;28;25096;-78
2023/03/20 04:23:45;;;;;;;36.10;15.02;;;8.70;99.90;;;;;;5076224;28;25117;-78
2023/03/20 04:26:12;;;;;;;47.65;18.13;;;8.70;99.90;;;;;;5076220;28;25005;-78
2023/03/20 04:28:40;;;;;;;45.40;17.40;;;8.70;99.90;;;;;;5076124;28;25079;-78
2023/03/20 04:31:07;;;;;;;45.33;17.73;;;8.70;99.90;;;;;;5076587;28;25068;-78
2023/03/20 04:33:34;;;;;;;49.83;16.77;;;8.70;99.90;;;;;;5076161;28;25062;-78
2023/03/20 04:36:02;;;;;;;47.17;18.10;;;8.70;99.90;;;;;;5076394;28;25096;-78
2023/03/20 04:38:29;;;;;;;49.33;16.83;;;8.70;99.90;;;;;;5076279;28;25094;-78
2023/03/20 04:40:56;;;;;;;49.60;18.30;;;8.70;99.90;;;;;;5076063;28;25115;-78
2023/03/20 04:43:24;;;;;;;55.75;19.92;;;8.70;99.90;;;;;;5076056;28;25128;-78
2023/03/20 04:45:51;;;;;;;51.42;18.20;;;8.70;99.90;;;;;;5076289;28;25064;-78
2023/03/20 04:48:19;;;;;;;41.42;17.25;;;8.60;99.90;;;;;;5076195;28;25057;-78
2023/03/20 04:50:47;;;;;;;49.80;17.75;;;8.60;99.90;;;;;;5075818;28;25079;-78
2023/03/20 04:53:15;;;;;;;48.08;17.60;;;8.60;99.90;;;;;;5075973;28;25130;-78
2023/03/20 04:55:43;;;;;;;46.75;17.50;;;8.60;99.90;;;;;;5076335;28;25089;-78
2023/03/20 04:58:12;;;;;;;53.65;19.30;;;8.50;99.90;;;;;;5077926;28;25073;-78
2023/03/20 05:00:39;;;;;;;53.90;19.77;;;8.60;99.90;;;;;;5079765;28;25080;-78
2023/03/20 05:03:06;;;;;;;54.70;19.38;;;8.60;99.90;;;;;;5079645;28;25050;-78
2023/03/20 05:05:36;;;;;;;49.90;19.42;;;8.60;99.90;;;;;;5080696;28;25059;-78
2023/03/20 05:08:05;;;;;;;56.08;19.85;;;8.50;99.90;;;;;;5079595;28;25124;-78
2023/03/20 05:10:33;;;;;;;46.83;18.35;;;8.60;99.90;;;;;;5080096;28;25101;-78
2023/03/20 05:13:00;;;;;;;48.55;18.40;;;8.60;99.90;;;;;;5079747;28;25106;-78
2023/03/20 05:15:27;;;;;;;49.65;18.98;;;8.60;99.90;;;;;;5079610;28;25061;-79
2023/03/20 05:17:55;;;;;;;49.67;18.55;;;8.60;99.90;;;;;;5079634;28;25124;-78
2023/03/20 05:20:22;;;;;;;57.63;20.17;;;8.60;99.90;;;;;;5061019;28;25048;-78
2023/03/20 05:22:50;;;;;;;52.00;18.70;;;8.60;99.90;;;;;;5079342;28;25144;-78
2023/03/20 05:25:19;;;;;;;43.22;19.60;;;8.60;99.90;;;;;;5079699;28;25069;-78
2023/03/20 05:27:46;;;;;;;52.97;20.25;;;8.60;99.90;;;;;;5079251;28;25072;-78
2023/03/20 05:30:14;;;;;;;47.28;19.20;;;8.60;99.90;;;;;;5079183;28;25072;-78
2023/03/20 05:32:42;;;;;;;49.78;19.27;;;8.60;99.90;;;;;;5079163;28;25103;-78
2023/03/20 05:35:10;;;;;;;57.55;20.75;;;8.60;99.90;;;;;;5079562;28;25059;-78
2023/03/20 05:37:38;;;;;;;53.22;19.30;;;8.60;99.90;;;;;;5079291;28;25106;-78
2023/03/20 05:40:06;;;;;;;53.17;20.02;;;8.60;99.90;;;;;;5061333;28;25072;-78
2023/03/20 05:42:34;;;;;;;57.53;20.85;;;8.60;99.90;;;;;;5079023;28;25115;-78
2023/03/20 05:45:02;;;;;;;55.17;21.75;;;8.60;99.90;;;;;;5079279;28;25107;-78
2023/03/20 05:47:30;;;;;;;53.22;20.98;;;8.60;99.90;;;;;;5079352;28;25115;-78
2023/03/20 05:49:57;;;;;;;47.60;20.00;;;8.50;99.90;;;;;;5079001;28;25140;-78
2023/03/20 05:52:25;;;;;;;56.00;20.35;;;8.50;99.90;;;;;;5078881;28;25098;-78
2023/03/20 05:54:52;;;;;;;53.53;20.45;;;8.50;99.90;;;;;;5078760;28;25071;-78
2023/03/20 05:57:19;;;;;;;43.30;18.13;;;8.50;99.90;;;;;;5060882;28;25104;-78
2023/03/20 05:59:46;;;;;;;45.20;19.05;;;8.50;99.90;;;;;;5060871;28;25059;-78
2023/03/20 06:02:14;;;;;;;34.20;16.27;;;8.60;99.90;;;;;;5060870;28;25041;-78
2023/03/20 06:04:41;;;;;;;42.38;17.30;;;8.60;99.90;;;;;;5078592;28;25090;-78
2023/03/20 06:07:08;;;;;;;34.28;16.27;;;8.60;99.90;;;;;;5061005;28;25129;-78
2023/03/20 06:09:36;;;;;;;35.38;15.45;;;8.60;99.90;;;;;;5077592;28;25110;-79
2023/03/20 06:12:03;;;;;;;34.10;15.50;;;8.60;99.90;;;;;;5078933;28;25142;-78
2023/03/20 06:14:31;;;;;;;33.92;15.20;;;8.60;99.90;;;;;;5078379;28;25056;-78
2023/03/20 06:16:59;;;;;;;38.40;15.50;;;8.60;99.90;;;;;;5078656;28;25069;-78
2023/03/20 06:19:26;;;;;;;34.85;15.63;;;8.60;99.90;;;;;;5078739;28;25070;-78
2023/03/20 06:21:54;;;;;;;34.67;15.45;;;8.60;99.90;;;;;;5078690;28;25118;-78
2023/03/20 06:24:22;;;;;;;34.67;16.90;;;8.60;99.90;;;;;;5060332;28;25068;-78
2023/03/20 06:26:50;;;;;;;35.15;15.52;;;8.60;99.90;;;;;;5078120;28;25052;-78
2023/03/20 06:29:17;;;;;;;37.05;17.42;;;8.60;99.90;;;;;;5060265;28;25083;-78
2023/03/20 06:31:45;;;;;;;32.50;15.85;;;8.60;99.90;;;;;;5078255;28;25101;-78
2023/03/20 06:34:12;;;;;;;32.33;14.98;;;8.60;99.90;;;;;;5078241;28;25079;-77
2023/03/20 06:36:40;;;;;;;35.90;16.45;;;8.50;99.90;;;;;;5060255;28;25090;-77
2023/03/20 06:39:08;;;;;;;41.65;17.77;;;8.50;99.90;;;;;;5077813;28;25057;-78
2023/03/20 06:41:35;;;;;;;34.67;14.88;;;8.50;99.90;;;;;;5078300;28;25144;-78
2023/03/20 06:44:03;;;;;;;37.15;16.75;;;8.50;99.90;;;;;;5077728;28;25106;-76
2023/03/20 06:46:30;;;;;;;38.25;17.48;;;8.50;99.90;;;;;;5077784;28;25106;-76
2023/03/20 06:48:57;;;;;;;42.10;18.40;;;8.50;99.90;;;;;;5077999;28;25108;-76
2023/03/20 06:51:25;;;;;;;34.40;15.63;;;8.50;99.90;;;;;;5078106;28;25061;-76
2023/03/20 06:53:52;;;;;;;39.20;19.45;;;8.50;99.90;;;;;;5077635;28;25130;-77
2023/03/20 06:56:22;;;;;;;38.80;18.65;;;8.50;99.90;;;;;;5077854;28;25118;-78
2023/03/20 06:58:49;;;;;;;39.10;16.98;;;8.40;99.90;;;;;;5079487;28;25073;-79
2023/03/20 07:01:19;;;;;;;44.53;19.65;;;8.50;99.90;;;;;;5078311;28;25104;-76
2023/03/20 07:03:46;;;;;;;43.17;20.73;;;8.40;99.90;;;;;;5077329;28;25114;-77
2023/03/20 07:06:14;;;;;;;47.72;23.05;;;8.40;99.90;;;;;;5077950;28;25099;-78
2023/03/20 07:08:41;;;;;;;49.47;21.17;;;8.40;99.90;;;;;;5077298;28;25088;-76
2023/03/20 07:11:08;;;;;;;53.00;22.20;;;8.40;99.90;;;;;;5077523;28;25117;-78
2023/03/20 07:13:36;;;;;;;47.03;21.08;;;8.40;99.90;;;;;;5077492;28;25062;-77
2023/03/20 07:16:04;;;;;;;56.35;23.25;;;8.40;99.90;;;;;;5077499;28;25090;-75
2023/03/20 07:18:32;;;;;;;44.22;20.52;;;8.40;99.90;;;;;;5077068;28;25073;-75
2023/03/20 07:21:04;;;;;;;52.30;20.95;;;8.40;99.90;;;;;;5076792;28;25129;-75
2023/03/20 07:23:33;;;;;;;47.00;21.05;;;8.40;99.90;;;;;;5077632;28;25077;-75
2023/03/20 07:26:01;;;;;;;45.80;22.38;;;8.40;99.90;;;;;;5076897;28;25067;-77
2023/03/20 07:28:28;;;;;;;56.15;23.00;;;8.50;99.90;;;;;;5076964;28;25153;-76
2023/03/20 07:30:55;;;;;;;48.25;21.77;;;8.60;99.90;;;;;;5077223;28;25064;-78
2023/03/20 07:33:23;;;;;;;49.55;23.13;;;8.60;99.90;;;;;;5077425;28;25108;-76
2023/03/20 07:35:54;;;;;;;48.95;22.67;;;8.60;99.90;;;;;;5077108;28;25064;-77
2023/03/20 07:38:22;;;;;;;48.67;22.23;;;8.60;99.90;;;;;;5058996;28;25059;-76
2023/03/20 07:40:54;;;;;;;45.78;20.30;;;8.60;99.90;;;;;;5076737;28;25069;-77
2023/03/20 07:43:21;;;;;;;47.60;21.98;;;8.60;99.90;;;;;;5076984;28;25099;-76
2023/03/20 07:45:50;;;;;;;44.83;21.63;;;8.70;99.90;;;;;;5058999;28;25078;-77
2023/03/20 07:48:17;;;;;;;47.55;20.92;;;8.60;99.90;;;;;;5076599;28;25054;-75
2023/03/20 07:50:46;;;;;;;45.72;20.00;;;8.70;99.90;;;;;;5055423;28;25081;-76
2023/03/20 07:53:13;;;;;;;44.03;20.00;;;8.60;99.90;;;;;;5056564;28;25081;-81
2023/03/20 07:55:42;;;;;;;47.15;22.20;;;8.60;99.90;;;;;;5056343;28;25159;-77
2023/03/20 07:58:10;;;;;;;51.58;22.23;;;8.70;99.90;;;;;;5056405;28;25057;-76
2023/03/20 08:00:37;;;;;;;51.50;22.75;;;8.70;99.90;;;;;;5056219;28;25070;-76
2023/03/20 08:03:05;;;;;;;49.08;23.48;;;8.70;99.90;;;;;;5056487;28;25075;-77
2023/03/20 08:05:33;;;;;;;45.85;22.10;;;8.80;99.90;;;;;;5057186;28;25086;-77
2023/03/20 08:08:00;;;;;;;46.88;21.02;;;8.80;99.90;;;;;;5055234;28;25099;-76
2023/03/20 08:10:28;;;;;;;42.75;21.23;;;8.80;99.90;;;;;;5056296;28;25097;-76
2023/03/20 08:12:55;;;;;;;47.35;22.00;;;8.80;99.90;;;;;;5056529;28;25133;-76
2023/03/20 08:15:23;;;;;;;42.53;20.55;;;8.80;99.90;;;;;;5056337;28;25073;-76
2023/03/20 08:17:51;;;;;;;38.13;18.70;;;8.90;99.90;;;;;;5055052;28;25138;-76
2023/03/20 08:20:19;;;;;;;38.80;18.80;;;8.90;99.90;;;;;;5056649;28;25080;-76
2023/03/20 08:22:48;;;;;;;33.08;17.77;;;9.00;99.90;;;;;;5056185;28;25095;-76
2023/03/20 08:25:17;;;;;;;28.02;14.23;;;9.10;99.90;;;;;;5056154;28;25063;-76
2023/03/20 08:27:45;;;;;;;29.65;13.85;;;9.20;99.90;;;;;;5056738;28;25118;-76
2023/03/20 08:30:14;;;;;;;29.77;15.57;;;9.20;99.90;;;;;;5056565;28;25101;-76
2023/03/20 08:32:42;;;;;;;24.30;13.02;;;9.30;99.90;;;;;;5056558;28;25106;-76
2023/03/20 08:35:10;;;;;;;27.17;12.45;;;9.30;99.90;;;;;;5059508;28;25137;-76
2023/03/20 08:37:37;;;;;;;28.63;11.77;;;9.30;99.90;;;;;;5060367;28;25135;-76
2023/03/20 08:40:05;;;;;;;19.23;10.15;;;9.30;99.90;;;;;;5060405;28;25101;-76
2023/03/20 08:42:34;;;;;;;17.98;9.48;;;9.40;99.90;;;;;;5059047;28;25064;-76
2023/03/20 08:45:02;;;;;;;21.33;10.50;;;9.50;99.90;;;;;;5060086;28;25130;-76
2023/03/20 08:47:28;;;;;;;16.40;8.52;;;9.50;99.90;;;;;;5060001;28;25047;-76
2023/03/20 08:49:56;;;;;;;18.02;9.85;;;9.60;99.90;;;;;;5070312;28;25076;-76
2023/03/20 08:52:23;;;;;;;15.40;7.82;;;9.60;99.90;;;;;;5080430;28;25096;-76
2023/03/20 08:54:50;;;;;;;14.75;8.60;;;9.60;99.90;;;;;;5079922;28;25001;-76
2023/03/20 08:57:18;;;;;;;13.65;7.93;;;9.50;99.90;;;;;;5062287;28;25089;-76
2023/03/20 08:59:45;;;;;;;18.08;8.77;;;9.40;99.90;;;;;;5080014;28;25108;-76
2023/03/20 09:02:12;;;;;;;16.77;8.93;;;9.40;99.90;;;;;;5080080;28;25077;-76
2023/03/20 09:04:40;;;;;;;17.00;9.68;;;9.40;99.90;;;;;;5080039;28;25120;-76
2023/03/20 09:07:07;;;;;;;19.55;9.60;;;9.40;99.90;;;;;;5062097;28;25073;-77
2023/03/20 09:09:35;;;;;;;19.10;9.23;;;9.50;99.90;;;;;;5080176;28;25087;-77
2023/03/20 09:12:02;;;;;;;22.50;10.43;;;9.70;99.90;;;;;;5079882;28;25096;-76
2023/03/20 09:14:30;;;;;;;17.08;9.45;;;9.80;99.90;;;;;;5079516;28;25077;-76
2023/03/20 09:16:58;;;;;;;16.70;8.18;;;9.90;99.90;;;;;;5079658;28;25070;-76
2023/03/20 09:19:25;;;;;;;19.88;10.45;;;9.90;99.90;;;;;;5079685;28;25113;-76
2023/03/20 09:21:52;;;;;;;15.48;9.63;;;10.00;99.90;;;;;;5079460;28;25063;-76
2023/03/20 09:24:20;;;;;;;20.67;10.77;;;10.00;99.90;;;;;;5079938;28;25071;-76
2023/03/20 09:26:47;;;;;;;17.08;9.13;;;10.00;99.90;;;;;;5079740;28;25052;-76
2023/03/20 09:29:15;;;;;;;22.00;10.27;;;10.10;99.90;;;;;;5079522;28;25068;-76
2023/03/20 09:31:43;;;;;;;17.35;10.23;;;10.10;99.90;;;;;;5079305;28;25129;-76
2023/03/20 09:34:10;;;;;;;21.35;9.05;;;10.10;99.90;;;;;;5061421;28;25064;-76
2023/03/20 09:36:38;;;;;;;22.95;10.90;;;10.30;99.90;;;;;;5079606;28;25066;-76
2023/03/20 09:39:05;;;;;;;16.35;9.15;;;10.50;99.90;;;;;;5079282;28;25093;-76
2023/03/20 09:41:36;;;;;;;19.02;9.82;;;10.60;99.90;;;;;;5079086;28;25075;-76
2023/03/20 09:44:23;;;;;;;19.25;10.88;;;10.70;99.90;;;;;;5078858;28;25068;-76
2023/03/20 09:47:00;;;;;;;16.63;9.02;;;10.70;99.90;;;;;;5079388;28;25068;-76
2023/03/20 09:49:37;;;;;;;14.02;7.80;;;10.70;99.90;;;;;;5079123;28;25107;-76
2023/03/20 09:52:19;;;;;;;15.98;9.05;;;10.70;99.90;;;;;;5079191;28;25070;-76
2023/03/20 09:55:03;;;;;;;12.23;7.32;;;10.70;99.90;;;;;;5079115;28;25116;-76
2023/03/20 09:57:40;;;;;;;17.35;9.02;;;10.80;99.90;;;;;;5078677;28;25068;-76
2023/03/20 10:00:17;;;;;;;14.35;6.85;;;10.80;99.90;;;;;;5078967;28;25129;-76
2023/03/20 10:03:07;;;;;;;16.77;7.85;;;10.80;99.90;;;;;;5060905;28;25061;-76
2023/03/20 10:06:03;;;;;;;16.17;8.13;;;10.80;99.90;;;;;;5078937;28;25064;-76
2023/03/20 10:08:37;;;;;;;16.00;8.15;;;10.70;99.90;;;;;;5069708;28;25069;-76
2023/03/20 10:11:24;;;;;;;13.15;7.60;;;10.70;99.90;;;;;;5060970;28;25066;-76
2023/03/20 10:14:09;;;;;;;14.88;8.02;;;10.90;99.90;;;;;;5078473;28;25053;-76
2023/03/20 10:16:46;;;;;;;17.58;8.48;;;11.00;99.90;;;;;;5060699;28;25055;-76
2023/03/20 10:19:20;;;;;;;12.23;7.35;;;11.10;99.90;;;;;;5078555;28;25117;-76
2023/03/20 10:22:08;;;;;;;18.17;8.93;;;11.10;99.90;;;;;;5060726;28;25078;-76
2023/03/20 10:24:56;;;;;;;14.90;8.20;;;11.10;99.90;;;;;;5078263;28;25060;-76
2023/03/20 10:27:26;;;;;;;14.20;8.63;;;11.00;99.90;;;;;;5078804;28;25131;-76
2023/03/20 10:30:03;;;;;;;16.00;8.38;;;10.90;99.90;;;;;;5078147;28;25078;-76
2023/03/20 10:32:44;;;;;;;20.55;8.25;;;10.80;99.90;;;;;;5079327;28;25077;-76
2023/03/20 10:35:39;;;;;;;17.30;7.97;;;10.80;99.90;;;;;;5078382;28;25073;-76
2023/03/20 10:38:21;;;;;;;16.55;8.55;;;10.80;99.90;;;;;;5078421;28;25095;-76
2023/03/20 10:40:49;;;;;;;17.33;7.68;;;10.80;99.90;;;;;;5078095;28;25073;-76
2023/03/20 10:43:32;;;;;;;14.38;9.13;;;10.80;99.90;;;;;;5060088;28;25091;-76
2023/03/20 10:46:09;;;;;;;17.58;9.20;;;10.70;99.90;;;;;;5077872;28;25140;-76
2023/03/20 10:49:12;;;;;;;16.98;7.97;;;10.70;99.90;;;;;;5078044;28;25083;-76
2023/03/20 10:51:51;;;;;;;16.65;8.25;;;10.70;99.90;;;;;;5049005;28;25067;-76
2023/03/20 10:54:34;;;;;;;17.90;9.90;;;10.70;99.90;;;;;;5057495;28;25116;-76
2023/03/20 10:57:04;;;;;;;14.55;8.90;;;10.90;99.90;;;;;;5057671;28;25132;-76
2023/03/20 10:59:48;;;;;;;18.40;9.48;;;10.90;99.90;;;;;;5057472;28;25103;-76
2023/03/20 11:02:18;;;;;;;16.65;8.95;;;10.90;99.90;;;;;;5058228;28;25064;-76
2023/03/20 11:04:46;;;;;;;14.88;8.25;;;10.90;99.90;;;;;;5057998;28;25062;-76
2023/03/20 11:07:34;;;;;;;14.18;9.02;;;10.80;99.90;;;;;;5057339;28;25152;-76
2023/03/20 11:10:09;;;;;;;12.40;8.27;;;10.70;99.90;;;;;;5057327;28;25062;-76
2023/03/20 11:12:47;;;;;;;13.45;7.65;;;10.60;99.90;;;;;;5057562;28;25102;-76
2023/03/20 11:15:35;;;;;;;11.48;7.00;;;10.60;99.90;;;;;;5057540;28;25108;-76
2023/03/20 11:18:14;;;;;;;11.55;6.55;;;10.60;99.90;;;;;;5057367;28;25083;-76
2023/03/20 11:20:55;;;;;;;12.40;6.43;;;10.60;99.90;;;;;;5057177;28;25119;-76
2023/03/20 11:23:33;;;;;;;16.65;8.27;;;10.60;99.90;;;;;;5057527;28;25067;-76
2023/03/20 11:26:03;;;;;;;16.58;8.77;;;10.80;99.90;;;;;;5057235;28;25162;-76
2023/03/20 11:28:39;;;;;;;14.23;9.07;;;11.00;99.90;;;;;;5057552;28;25078;-76
2023/03/20 11:31:19;;;;;;;19.48;10.15;;;11.10;99.90;;;;;;5058384;28;25072;-77
2023/03/20 11:34:00;;;;;;;19.30;8.82;;;11.20;99.90;;;;;;5039285;28;25104;-77
2023/03/20 11:36:31;;;;;;;16.77;8.23;;;11.40;99.90;;;;;;5056882;28;25065;-76
2023/03/20 11:39:14;;;;;;;14.30;8.25;;;11.40;99.90;;;;;;5056999;28;25054;-76
2023/03/20 11:41:52;;;;;;;11.38;6.55;;;11.50;99.90;;;;;;5039040;28;25086;-76
2023/03/20 11:44:27;;;;;;;9.45;4.57;;;11.70;99.90;;;;;;5038986;28;25105;-77
2023/03/20 11:47:03;;;;;;;8.70;4.90;;;11.80;99.90;;;;;;5056863;28;25094;-76
2023/03/20 11:49:32;;;;;;;9.20;4.50;;;11.90;99.90;;;;;;5060363;28;25052;-76
2023/03/20 11:52:13;;;;;;;12.57;5.35;;;11.80;99.90;;;;;;5076683;28;25101;-76
2023/03/20 11:54:48;;;;;;;9.35;5.05;;;11.70;99.90;;;;;;5076855;28;25074;-76
2023/03/20 11:57:33;;;;;;;13.57;5.00;;;11.60;99.90;;;;;;5076772;28;25107;-76
2023/03/20 12:00:23;;;;;;;6.63;4.10;;;11.60;99.90;;;;;;5076777;28;25105;-76
2023/03/20 12:02:50;;;;;;;6.63;3.75;;;11.70;99.90;;;;;;5076407;28;25056;-77
2023/03/20 12:05:35;;;;;;;7.70;4.13;;;11.80;99.90;;;;;;5076580;28;25074;-77
2023/03/20 12:08:25;;;;;;;6.95;3.65;;;11.90;99.90;;;;;;5076325;28;25106;-76
2023/03/20 12:11:25;;;;;;;7.93;4.13;;;12.00;99.90;;;;;;5076657;28;25118;-75
2023/03/20 12:13:57;;;;;;;9.95;4.05;;;12.10;99.90;;;;;;5076308;28;25068;-78
2023/03/20 12:16:28;;;;;;;9.93;3.75;;;12.10;99.90;;;;;;5058663;28;25111;-77
2023/03/20 12:19:16;;;;;;;10.35;3.75;;;12.20;99.90;;;;;;5076126;28;25137;-77
2023/03/20 12:21:56;;;;;;;5.80;3.47;;;12.30;99.90;;;;;;5076220;28;25068;-77
2023/03/20 12:24:46;;;;;;;7.38;3.50;;;12.30;99.90;;;;;;5076476;28;25059;-76
2023/03/20 12:27:21;;;;;;;6.57;3.58;;;12.30;99.90;;;;;;5058397;28;25074;-79
2023/03/20 12:29:58;;;;;;;6.97;3.15;;;12.20;99.90;;;;;;5076451;28;25057;-77
2023/03/20 12:32:59;;;;;;;7.93;3.53;;;12.20;99.90;;;;;;5076451;28;25141;-78
2023/03/20 12:35:46;;;;;;;5.53;3.70;;;12.20;99.90;;;;;;5055532;28;25116;-79
2023/03/20 12:38:25;;;;;;;7.97;4.38;;;12.20;99.90;;;;;;5076276;28;25056;-76
2023/03/20 12:41:11;;;;;;;8.40;4.78;;;12.20;99.90;;;;;;5076549;28;25111;-78
2023/03/20 12:44:04;;;;;;;5.55;3.65;;;12.20;99.90;;;;;;5076320;28;25053;-77
2023/03/20 12:46:51;;;;;;;11.10;3.90;;;12.10;99.90;;;;;;5076283;28;25060;-77
2023/03/20 12:49:25;;;;;;;6.32;3.85;;;12.00;99.90;;;;;;5075780;28;25078;-78
2023/03/20 12:52:22;;;;;;;9.18;3.22;;;11.90;99.90;;;;;;5076463;28;25070;-78
2023/03/20 12:55:12;;;;;;;13.73;9.57;;;11.80;99.90;;;;;;5076225;28;25104;-76
2023/03/20 12:58:01;;;;;;;12.10;4.95;;;11.70;99.90;;;;;;5076093;28;25056;-76
2023/03/20 13:00:38;;;;;;;8.18;4.32;;;11.60;99.90;;;;;;5076067;28;25091;-76
2023/03/20 13:03:21;;;;;;;11.15;4.03;;;11.70;99.90;;;;;;5076172;28;25091;-76
2023/03/20 13:06:20;;;;;;;10.00;4.05;;;11.70;99.90;;;;;;5076438;28;25139;-76
2023/03/20 13:09:17;;;;;;;7.00;3.38;;;11.90;99.40;;;;;;5075833;28;25070;-75
2023/03/20 13:11:51;;;;;;;9.07;3.95;;;12.00;99.00;;;;;;5076262;28;25098;-76